Aviation Digital Data Service (ADDS)

Output produced by TAFs form (0334 UTC 30 May 2017)
found at http://www.aviationweather.gov/adds/tafs/
 
KGFL 292347Z 3000/3024 18005KT P6SM BKN025 OVC035 
     FM300600 VRB03KT P6SM BKN007 OVC015 
     FM301500 20007KT P6SM VCSH OVC015 
     FM301900 20010KT 4SM SHRA BR OVC025